sensor_id;sensor_type;location;lat;lon;timestamp;P1;durP1;ratioP1;P2;durP2;ratioP2
7460;SDS011;6757;52.258;12.840;2023-07-20T00:01:08;5.68;;;2.53;;
7460;SDS011;6757;52.258;12.840;2023-07-20T00:03:35;8.15;;;3.25;;
7460;SDS011;6757;52.258;12.840;2023-07-20T00:06:02;5.18;;;2.63;;
7460;SDS011;6757;52.258;12.840;2023-07-20T00:08:29;6.13;;;2.90;;
7460;SDS011;6757;52.258;12.840;2023-07-20T00:10:56;5.82;;;2.70;;
7460;SDS011;6757;52.258;12.840;2023-07-20T00:13:23;6.70;;;3.10;;
7460;SDS011;6757;52.258;12.840;2023-07-20T00:15:52;7.07;;;2.90;;
7460;SDS011;6757;52.258;12.840;2023-07-20T00:18:19;6.72;;;2.83;;
7460;SDS011;6757;52.258;12.840;2023-07-20T00:20:46;6.95;;;2.63;;
7460;SDS011;6757;52.258;12.840;2023-07-20T00:23:13;6.60;;;2.88;;
7460;SDS011;6757;52.258;12.840;2023-07-20T00:25:40;7.10;;;2.83;;
7460;SDS011;6757;52.258;12.840;2023-07-20T00:28:07;10.02;;;3.40;;
7460;SDS011;6757;52.258;12.840;2023-07-20T00:30:34;6.18;;;3.10;;
7460;SDS011;6757;52.258;12.840;2023-07-20T00:33:02;5.05;;;2.80;;
7460;SDS011;6757;52.258;12.840;2023-07-20T00:35:29;6.68;;;3.15;;
7460;SDS011;6757;52.258;12.840;2023-07-20T00:37:56;5.95;;;2.65;;
7460;SDS011;6757;52.258;12.840;2023-07-20T00:40:23;6.20;;;2.80;;
7460;SDS011;6757;52.258;12.840;2023-07-20T00:42:51;5.97;;;2.67;;
7460;SDS011;6757;52.258;12.840;2023-07-20T00:45:17;6.28;;;2.63;;
7460;SDS011;6757;52.258;12.840;2023-07-20T00:47:44;5.07;;;2.70;;
7460;SDS011;6757;52.258;12.840;2023-07-20T00:50:13;5.93;;;2.42;;
7460;SDS011;6757;52.258;12.840;2023-07-20T00:52:40;4.25;;;2.50;;
7460;SDS011;6757;52.258;12.840;2023-07-20T00:55:08;5.30;;;2.95;;
7460;SDS011;6757;52.258;12.840;2023-07-20T00:57:36;6.70;;;2.63;;
7460;SDS011;6757;52.258;12.840;2023-07-20T01:00:03;6.30;;;2.83;;
7460;SDS011;6757;52.258;12.840;2023-07-20T01:02:32;6.00;;;2.72;;
7460;SDS011;6757;52.258;12.840;2023-07-20T01:04:59;5.82;;;2.72;;
7460;SDS011;6757;52.258;12.840;2023-07-20T01:07:30;5.90;;;2.85;;
7460;SDS011;6757;52.258;12.840;2023-07-20T01:10:01;5.43;;;2.67;;
7460;SDS011;6757;52.258;12.840;2023-07-20T01:12:40;4.88;;;2.90;;
7460;SDS011;6757;52.258;12.840;2023-07-20T01:15:09;5.82;;;2.90;;
7460;SDS011;6757;52.258;12.840;2023-07-20T01:17:37;5.45;;;2.50;;
7460;SDS011;6757;52.258;12.840;2023-07-20T01:20:05;6.15;;;2.85;;
7460;SDS011;6757;52.258;12.840;2023-07-20T01:22:45;6.90;;;3.00;;
7460;SDS011;6757;52.258;12.840;2023-07-20T01:25:34;7.13;;;3.13;;
7460;SDS011;6757;52.258;12.840;2023-07-20T01:28:35;6.03;;;2.60;;
7460;SDS011;6757;52.258;12.840;2023-07-20T01:31:27;6.88;;;2.70;;
7460;SDS011;6757;52.258;12.840;2023-07-20T01:33:57;5.18;;;2.60;;
7460;SDS011;6757;52.258;12.840;2023-07-20T01:36:28;6.18;;;2.75;;
7460;SDS011;6757;52.258;12.840;2023-07-20T01:38:58;8.70;;;2.63;;
7460;SDS011;6757;52.258;12.840;2023-07-20T01:41:26;6.50;;;2.83;;
7460;SDS011;6757;52.258;12.840;2023-07-20T01:43:55;4.80;;;2.83;;
7460;SDS011;6757;52.258;12.840;2023-07-20T01:48:52;5.80;;;2.65;;
7460;SDS011;6757;52.258;12.840;2023-07-20T01:51:20;3.65;;;2.22;;
7460;SDS011;6757;52.258;12.840;2023-07-20T01:53:46;5.30;;;2.60;;
7460;SDS011;6757;52.258;12.840;2023-07-20T01:56:13;6.70;;;3.05;;
7460;SDS011;6757;52.258;12.840;2023-07-20T01:58:40;6.70;;;3.00;;
7460;SDS011;6757;52.258;12.840;2023-07-20T02:01:07;6.13;;;3.00;;
7460;SDS011;6757;52.258;12.840;2023-07-20T02:03:34;3.53;;;2.35;;
7460;SDS011;6757;52.258;12.840;2023-07-20T02:06:02;7.80;;;3.22;;
7460;SDS011;6757;52.258;12.840;2023-07-20T02:08:29;6.30;;;3.25;;
7460;SDS011;6757;52.258;12.840;2023-07-20T02:10:56;8.73;;;3.75;;
7460;SDS011;6757;52.258;12.840;2023-07-20T02:13:23;8.05;;;3.65;;
7460;SDS011;6757;52.258;12.840;2023-07-20T02:15:50;11.30;;;3.90;;
7460;SDS011;6757;52.258;12.840;2023-07-20T02:18:17;9.07;;;3.85;;
7460;SDS011;6757;52.258;12.840;2023-07-20T02:20:44;8.30;;;3.78;;
7460;SDS011;6757;52.258;12.840;2023-07-20T02:23:12;9.80;;;3.70;;
7460;SDS011;6757;52.258;12.840;2023-07-20T02:25:39;7.63;;;3.17;;
7460;SDS011;6757;52.258;12.840;2023-07-20T02:28:06;7.22;;;3.50;;
7460;SDS011;6757;52.258;12.840;2023-07-20T02:30:34;7.78;;;3.58;;
7460;SDS011;6757;52.258;12.840;2023-07-20T02:33:03;8.52;;;3.97;;
7460;SDS011;6757;52.258;12.840;2023-07-20T02:35:31;7.55;;;3.65;;
7460;SDS011;6757;52.258;12.840;2023-07-20T02:37:58;7.63;;;3.60;;
7460;SDS011;6757;52.258;12.840;2023-07-20T02:40:26;9.90;;;3.95;;
7460;SDS011;6757;52.258;12.840;2023-07-20T02:42:53;8.68;;;4.00;;
7460;SDS011;6757;52.258;12.840;2023-07-20T02:45:20;10.18;;;4.32;;
7460;SDS011;6757;52.258;12.840;2023-07-20T02:47:47;6.07;;;3.60;;
7460;SDS011;6757;52.258;12.840;2023-07-20T02:50:14;10.85;;;4.05;;
7460;SDS011;6757;52.258;12.840;2023-07-20T02:52:41;9.32;;;3.75;;
7460;SDS011;6757;52.258;12.840;2023-07-20T02:55:08;8.80;;;3.78;;
7460;SDS011;6757;52.258;12.840;2023-07-20T02:57:37;7.82;;;3.90;;
7460;SDS011;6757;52.258;12.840;2023-07-20T03:00:04;8.82;;;3.67;;
7460;SDS011;6757;52.258;12.840;2023-07-20T03:02:34;9.32;;;4.20;;
7460;SDS011;6757;52.258;12.840;2023-07-20T03:05:01;9.05;;;4.07;;
7460;SDS011;6757;52.258;12.840;2023-07-20T03:07:30;8.68;;;4.05;;
7460;SDS011;6757;52.258;12.840;2023-07-20T03:09:57;8.10;;;3.58;;
7460;SDS011;6757;52.258;12.840;2023-07-20T03:12:24;11.90;;;3.78;;
7460;SDS011;6757;52.258;12.840;2023-07-20T03:14:53;8.25;;;3.90;;
7460;SDS011;6757;52.258;12.840;2023-07-20T03:17:22;8.48;;;3.83;;
7460;SDS011;6757;52.258;12.840;2023-07-20T03:19:48;7.88;;;3.58;;
7460;SDS011;6757;52.258;12.840;2023-07-20T03:22:15;7.55;;;3.50;;
7460;SDS011;6757;52.258;12.840;2023-07-20T03:24:42;8.90;;;3.33;;
7460;SDS011;6757;52.258;12.840;2023-07-20T03:27:09;9.60;;;3.67;;
7460;SDS011;6757;52.258;12.840;2023-07-20T03:29:36;8.93;;;3.85;;
7460;SDS011;6757;52.258;12.840;2023-07-20T03:32:05;9.18;;;4.22;;
7460;SDS011;6757;52.258;12.840;2023-07-20T03:34:32;9.10;;;3.90;;
7460;SDS011;6757;52.258;12.840;2023-07-20T03:36:59;8.43;;;3.60;;
7460;SDS011;6757;52.258;12.840;2023-07-20T03:39:26;8.55;;;3.42;;
7460;SDS011;6757;52.258;12.840;2023-07-20T03:41:53;8.38;;;3.90;;
7460;SDS011;6757;52.258;12.840;2023-07-20T03:44:20;9.65;;;4.53;;
7460;SDS011;6757;52.258;12.840;2023-07-20T03:46:47;7.55;;;3.58;;
7460;SDS011;6757;52.258;12.840;2023-07-20T03:49:15;8.88;;;3.75;;
7460;SDS011;6757;52.258;12.840;2023-07-20T03:51:43;9.98;;;4.15;;
7460;SDS011;6757;52.258;12.840;2023-07-20T03:54:09;10.00;;;4.32;;
7460;SDS011;6757;52.258;12.840;2023-07-20T03:56:36;8.32;;;3.75;;
7460;SDS011;6757;52.258;12.840;2023-07-20T03:59:03;8.98;;;3.53;;
7460;SDS011;6757;52.258;12.840;2023-07-20T04:01:30;8.80;;;3.55;;
7460;SDS011;6757;52.258;12.840;2023-07-20T04:04:04;9.65;;;3.80;;
7460;SDS011;6757;52.258;12.840;2023-07-20T04:06:34;10.77;;;4.13;;
7460;SDS011;6757;52.258;12.840;2023-07-20T04:09:01;9.18;;;4.05;;
7460;SDS011;6757;52.258;12.840;2023-07-20T04:11:29;11.48;;;4.53;;
7460;SDS011;6757;52.258;12.840;2023-07-20T04:13:56;8.75;;;3.78;;
7460;SDS011;6757;52.258;12.840;2023-07-20T04:16:23;8.90;;;4.10;;
7460;SDS011;6757;52.258;12.840;2023-07-20T04:18:51;11.82;;;4.78;;
7460;SDS011;6757;52.258;12.840;2023-07-20T04:21:18;10.73;;;4.30;;
7460;SDS011;6757;52.258;12.840;2023-07-20T04:23:46;9.65;;;3.75;;
7460;SDS011;6757;52.258;12.840;2023-07-20T04:26:13;9.10;;;4.00;;
7460;SDS011;6757;52.258;12.840;2023-07-20T04:28:40;8.88;;;3.78;;
7460;SDS011;6757;52.258;12.840;2023-07-20T04:31:10;11.57;;;4.88;;
7460;SDS011;6757;52.258;12.840;2023-07-20T04:33:38;10.27;;;3.78;;
7460;SDS011;6757;52.258;12.840;2023-07-20T04:36:05;7.45;;;3.40;;
7460;SDS011;6757;52.258;12.840;2023-07-20T04:38:33;9.38;;;4.03;;
7460;SDS011;6757;52.258;12.840;2023-07-20T04:41:01;11.20;;;4.05;;
7460;SDS011;6757;52.258;12.840;2023-07-20T04:43:28;10.95;;;4.25;;
7460;SDS011;6757;52.258;12.840;2023-07-20T04:45:56;9.30;;;3.83;;
7460;SDS011;6757;52.258;12.840;2023-07-20T04:48:23;7.00;;;3.55;;
7460;SDS011;6757;52.258;12.840;2023-07-20T04:50:50;9.05;;;4.05;;
7460;SDS011;6757;52.258;12.840;2023-07-20T04:53:17;9.15;;;3.92;;
7460;SDS011;6757;52.258;12.840;2023-07-20T04:55:47;9.70;;;4.00;;
7460;SDS011;6757;52.258;12.840;2023-07-20T04:58:18;8.40;;;4.07;;
7460;SDS011;6757;52.258;12.840;2023-07-20T05:00:45;12.20;;;4.38;;
7460;SDS011;6757;52.258;12.840;2023-07-20T05:03:12;8.73;;;3.92;;
7460;SDS011;6757;52.258;12.840;2023-07-20T05:05:39;11.27;;;4.63;;
7460;SDS011;6757;52.258;12.840;2023-07-20T05:08:06;9.50;;;4.38;;
7460;SDS011;6757;52.258;12.840;2023-07-20T05:10:32;10.55;;;4.82;;
7460;SDS011;6757;52.258;12.840;2023-07-20T05:12:59;12.80;;;4.78;;
7460;SDS011;6757;52.258;12.840;2023-07-20T05:15:28;9.75;;;4.45;;
7460;SDS011;6757;52.258;12.840;2023-07-20T05:17:54;12.13;;;4.68;;
7460;SDS011;6757;52.258;12.840;2023-07-20T05:20:21;10.50;;;4.57;;
7460;SDS011;6757;52.258;12.840;2023-07-20T05:22:48;9.80;;;4.00;;
7460;SDS011;6757;52.258;12.840;2023-07-20T05:25:15;9.60;;;4.15;;
7460;SDS011;6757;52.258;12.840;2023-07-20T05:27:44;14.27;;;5.10;;
7460;SDS011;6757;52.258;12.840;2023-07-20T05:30:11;9.32;;;4.00;;
7460;SDS011;6757;52.258;12.840;2023-07-20T05:32:40;11.15;;;4.75;;
7460;SDS011;6757;52.258;12.840;2023-07-20T05:35:07;9.95;;;4.80;;
7460;SDS011;6757;52.258;12.840;2023-07-20T05:37:36;13.00;;;5.43;;
7460;SDS011;6757;52.258;12.840;2023-07-20T05:40:04;8.88;;;4.15;;
7460;SDS011;6757;52.258;12.840;2023-07-20T05:42:32;13.18;;;5.00;;
7460;SDS011;6757;52.258;12.840;2023-07-20T05:44:59;11.50;;;4.97;;
7460;SDS011;6757;52.258;12.840;2023-07-20T05:47:26;9.27;;;3.75;;
7460;SDS011;6757;52.258;12.840;2023-07-20T05:49:55;11.55;;;4.57;;
7460;SDS011;6757;52.258;12.840;2023-07-20T05:52:22;8.38;;;3.65;;
7460;SDS011;6757;52.258;12.840;2023-07-20T05:54:49;8.75;;;4.20;;
7460;SDS011;6757;52.258;12.840;2023-07-20T05:57:16;9.70;;;4.22;;
7460;SDS011;6757;52.258;12.840;2023-07-20T05:59:43;10.05;;;3.72;;
7460;SDS011;6757;52.258;12.840;2023-07-20T06:02:09;9.95;;;3.60;;
7460;SDS011;6757;52.258;12.840;2023-07-20T06:04:37;9.30;;;4.00;;
7460;SDS011;6757;52.258;12.840;2023-07-20T06:07:06;12.80;;;3.83;;
7460;SDS011;6757;52.258;12.840;2023-07-20T06:09:33;9.43;;;3.75;;
7460;SDS011;6757;52.258;12.840;2023-07-20T06:12:00;8.25;;;3.65;;
7460;SDS011;6757;52.258;12.840;2023-07-20T06:14:28;11.73;;;3.97;;
7460;SDS011;6757;52.258;12.840;2023-07-20T06:16:54;11.30;;;4.00;;
7460;SDS011;6757;52.258;12.840;2023-07-20T06:19:21;9.23;;;3.72;;
7460;SDS011;6757;52.258;12.840;2023-07-20T06:21:48;9.77;;;3.85;;
7460;SDS011;6757;52.258;12.840;2023-07-20T06:24:17;6.75;;;3.03;;
7460;SDS011;6757;52.258;12.840;2023-07-20T06:26:44;7.55;;;3.13;;
7460;SDS011;6757;52.258;12.840;2023-07-20T06:29:10;7.93;;;3.47;;
7460;SDS011;6757;52.258;12.840;2023-07-20T06:31:37;7.97;;;3.67;;
7460;SDS011;6757;52.258;12.840;2023-07-20T06:34:04;10.57;;;3.95;;
7460;SDS011;6757;52.258;12.840;2023-07-20T06:36:31;7.10;;;3.35;;
7460;SDS011;6757;52.258;12.840;2023-07-20T06:38:58;6.03;;;2.97;;
7460;SDS011;6757;52.258;12.840;2023-07-20T06:41:26;6.68;;;3.10;;
7460;SDS011;6757;52.258;12.840;2023-07-20T06:43:53;6.35;;;3.05;;
7460;SDS011;6757;52.258;12.840;2023-07-20T06:46:23;4.90;;;2.72;;
7460;SDS011;6757;52.258;12.840;2023-07-20T06:48:51;6.30;;;2.80;;
7460;SDS011;6757;52.258;12.840;2023-07-20T06:51:18;5.93;;;2.55;;
7460;SDS011;6757;52.258;12.840;2023-07-20T06:53:45;5.82;;;2.53;;
7460;SDS011;6757;52.258;12.840;2023-07-20T06:56:12;7.90;;;2.83;;
7460;SDS011;6757;52.258;12.840;2023-07-20T06:58:41;5.82;;;2.72;;
7460;SDS011;6757;52.258;12.840;2023-07-20T07:01:08;5.78;;;2.58;;
7460;SDS011;6757;52.258;12.840;2023-07-20T07:03:35;5.40;;;2.50;;
7460;SDS011;6757;52.258;12.840;2023-07-20T07:06:02;7.97;;;2.47;;
7460;SDS011;6757;52.258;12.840;2023-07-20T07:08:29;7.30;;;2.85;;
7460;SDS011;6757;52.258;12.840;2023-07-20T07:10:56;4.28;;;2.58;;
7460;SDS011;6757;52.258;12.840;2023-07-20T07:13:23;5.15;;;2.63;;
7460;SDS011;6757;52.258;12.840;2023-07-20T07:15:51;4.60;;;2.70;;
7460;SDS011;6757;52.258;12.840;2023-07-20T07:18:18;6.07;;;2.50;;
7460;SDS011;6757;52.258;12.840;2023-07-20T07:20:50;3.85;;;2.30;;
7460;SDS011;6757;52.258;12.840;2023-07-20T07:23:18;5.20;;;2.55;;
7460;SDS011;6757;52.258;12.840;2023-07-20T07:25:45;5.13;;;2.60;;
7460;SDS011;6757;52.258;12.840;2023-07-20T07:28:12;7.03;;;3.00;;
7460;SDS011;6757;52.258;12.840;2023-07-20T07:30:39;3.67;;;2.35;;
7460;SDS011;6757;52.258;12.840;2023-07-20T07:33:07;4.75;;;2.45;;
7460;SDS011;6757;52.258;12.840;2023-07-20T07:35:34;6.78;;;2.85;;
7460;SDS011;6757;52.258;12.840;2023-07-20T07:38:01;6.43;;;2.60;;
7460;SDS011;6757;52.258;12.840;2023-07-20T07:40:28;5.47;;;2.60;;
7460;SDS011;6757;52.258;12.840;2023-07-20T07:42:55;4.47;;;2.42;;
7460;SDS011;6757;52.258;12.840;2023-07-20T07:45:22;4.93;;;2.80;;
7460;SDS011;6757;52.258;12.840;2023-07-20T07:47:49;4.45;;;2.38;;
7460;SDS011;6757;52.258;12.840;2023-07-20T07:50:17;4.03;;;2.33;;
7460;SDS011;6757;52.258;12.840;2023-07-20T07:52:44;4.10;;;2.60;;
7460;SDS011;6757;52.258;12.840;2023-07-20T07:55:11;6.20;;;2.60;;
7460;SDS011;6757;52.258;12.840;2023-07-20T07:57:38;7.43;;;2.83;;
7460;SDS011;6757;52.258;12.840;2023-07-20T08:00:05;4.72;;;2.40;;
7460;SDS011;6757;52.258;12.840;2023-07-20T08:02:37;7.43;;;3.00;;
7460;SDS011;6757;52.258;12.840;2023-07-20T08:05:04;4.95;;;2.40;;
7460;SDS011;6757;52.258;12.840;2023-07-20T08:07:33;5.50;;;2.70;;
7460;SDS011;6757;52.258;12.840;2023-07-20T08:10:00;5.70;;;2.55;;
7460;SDS011;6757;52.258;12.840;2023-07-20T08:12:27;5.38;;;2.63;;
7460;SDS011;6757;52.258;12.840;2023-07-20T08:14:54;4.38;;;2.58;;
7460;SDS011;6757;52.258;12.840;2023-07-20T08:17:20;4.82;;;2.75;;
7460;SDS011;6757;52.258;12.840;2023-07-20T08:19:47;5.97;;;2.70;;
7460;SDS011;6757;52.258;12.840;2023-07-20T08:22:14;6.07;;;3.05;;
7460;SDS011;6757;52.258;12.840;2023-07-20T08:24:43;5.50;;;2.60;;
7460;SDS011;6757;52.258;12.840;2023-07-20T08:27:10;5.03;;;2.80;;
7460;SDS011;6757;52.258;12.840;2023-07-20T08:29:37;4.32;;;2.42;;
7460;SDS011;6757;52.258;12.840;2023-07-20T08:32:05;5.05;;;2.63;;
7460;SDS011;6757;52.258;12.840;2023-07-20T08:34:33;3.88;;;2.40;;
7460;SDS011;6757;52.258;12.840;2023-07-20T08:36:59;4.05;;;2.30;;
7460;SDS011;6757;52.258;12.840;2023-07-20T08:39:26;3.92;;;2.10;;
7460;SDS011;6757;52.258;12.840;2023-07-20T08:41:55;5.35;;;2.53;;
7460;SDS011;6757;52.258;12.840;2023-07-20T08:44:24;4.30;;;2.45;;
7460;SDS011;6757;52.258;12.840;2023-07-20T08:46:52;4.10;;;2.40;;
7460;SDS011;6757;52.258;12.840;2023-07-20T08:49:20;4.93;;;2.50;;
7460;SDS011;6757;52.258;12.840;2023-07-20T08:51:47;3.92;;;2.20;;
7460;SDS011;6757;52.258;12.840;2023-07-20T08:54:15;3.08;;;2.20;;
7460;SDS011;6757;52.258;12.840;2023-07-20T08:56:42;2.58;;;1.90;;
7460;SDS011;6757;52.258;12.840;2023-07-20T08:59:13;1.92;;;1.80;;
7460;SDS011;6757;52.258;12.840;2023-07-20T09:01:43;1.90;;;1.75;;
7460;SDS011;6757;52.258;12.840;2023-07-20T09:04:12;3.00;;;1.80;;
7460;SDS011;6757;52.258;12.840;2023-07-20T09:06:39;1.98;;;1.55;;
7460;SDS011;6757;52.258;12.840;2023-07-20T09:09:06;2.83;;;1.90;;
7460;SDS011;6757;52.258;12.840;2023-07-20T09:11:33;2.40;;;1.98;;
7460;SDS011;6757;52.258;12.840;2023-07-20T09:14:03;3.30;;;2.28;;
7460;SDS011;6757;52.258;12.840;2023-07-20T09:16:33;1.67;;;1.58;;
7460;SDS011;6757;52.258;12.840;2023-07-20T09:19:14;2.35;;;1.83;;
7460;SDS011;6757;52.258;12.840;2023-07-20T09:21:43;2.28;;;1.63;;
7460;SDS011;6757;52.258;12.840;2023-07-20T09:24:12;1.60;;;1.50;;
7460;SDS011;6757;52.258;12.840;2023-07-20T09:26:42;1.60;;;1.50;;
7460;SDS011;6757;52.258;12.840;2023-07-20T09:31:38;2.53;;;1.90;;
7460;SDS011;6757;52.258;12.840;2023-07-20T09:34:06;1.70;;;1.60;;
7460;SDS011;6757;52.258;12.840;2023-07-20T09:36:33;1.73;;;1.60;;
7460;SDS011;6757;52.258;12.840;2023-07-20T09:39:02;1.35;;;1.25;;
7460;SDS011;6757;52.258;12.840;2023-07-20T09:41:30;3.03;;;1.50;;
7460;SDS011;6757;52.258;12.840;2023-07-20T09:44:07;2.40;;;1.67;;
7460;SDS011;6757;52.258;12.840;2023-07-20T09:46:42;3.30;;;1.75;;
7460;SDS011;6757;52.258;12.840;2023-07-20T09:49:11;1.60;;;1.50;;
7460;SDS011;6757;52.258;12.840;2023-07-20T09:51:38;1.85;;;1.33;;
7460;SDS011;6757;52.258;12.840;2023-07-20T09:54:05;1.70;;;1.60;;
7460;SDS011;6757;52.258;12.840;2023-07-20T09:56:34;1.50;;;1.40;;
7460;SDS011;6757;52.258;12.840;2023-07-20T09:59:02;2.53;;;1.67;;
7460;SDS011;6757;52.258;12.840;2023-07-20T10:01:29;1.83;;;1.30;;
7460;SDS011;6757;52.258;12.840;2023-07-20T10:03:59;2.03;;;1.55;;
7460;SDS011;6757;52.258;12.840;2023-07-20T10:06:30;1.60;;;1.25;;
7460;SDS011;6757;52.258;12.840;2023-07-20T10:09:00;1.25;;;1.23;;
7460;SDS011;6757;52.258;12.840;2023-07-20T10:11:31;1.73;;;1.60;;
7460;SDS011;6757;52.258;12.840;2023-07-20T10:14:03;2.22;;;1.60;;
7460;SDS011;6757;52.258;12.840;2023-07-20T10:16:31;1.70;;;1.60;;
7460;SDS011;6757;52.258;12.840;2023-07-20T10:19:03;2.30;;;1.50;;
7460;SDS011;6757;52.258;12.840;2023-07-20T10:21:33;1.75;;;1.65;;
7460;SDS011;6757;52.258;12.840;2023-07-20T10:24:07;1.73;;;1.63;;
7460;SDS011;6757;52.258;12.840;2023-07-20T10:26:36;2.97;;;1.80;;
7460;SDS011;6757;52.258;12.840;2023-07-20T10:29:03;1.60;;;1.50;;
7460;SDS011;6757;52.258;12.840;2023-07-20T10:31:31;1.30;;;1.20;;
7460;SDS011;6757;52.258;12.840;2023-07-20T10:33:59;1.52;;;1.40;;
7460;SDS011;6757;52.258;12.840;2023-07-20T10:36:28;1.67;;;1.58;;
7460;SDS011;6757;52.258;12.840;2023-07-20T10:38:55;1.50;;;1.40;;
7460;SDS011;6757;52.258;12.840;2023-07-20T10:41:27;2.10;;;1.33;;
7460;SDS011;6757;52.258;12.840;2023-07-20T10:43:57;1.10;;;1.10;;
7460;SDS011;6757;52.258;12.840;2023-07-20T10:46:34;1.10;;;1.10;;
7460;SDS011;6757;52.258;12.840;2023-07-20T10:49:09;1.27;;;1.20;;
7460;SDS011;6757;52.258;12.840;2023-07-20T10:51:42;0.68;;;0.68;;
7460;SDS011;6757;52.258;12.840;2023-07-20T10:59:49;1.83;;;1.08;;
7460;SDS011;6757;52.258;12.840;2023-07-20T11:02:17;1.55;;;1.35;;
7460;SDS011;6757;52.258;12.840;2023-07-20T11:04:46;1.20;;;1.20;;
7460;SDS011;6757;52.258;12.840;2023-07-20T11:07:35;1.20;;;1.10;;
7460;SDS011;6757;52.258;12.840;2023-07-20T11:10:12;1.88;;;1.67;;
7460;SDS011;6757;52.258;12.840;2023-07-20T11:12:40;1.63;;;1.15;;
7460;SDS011;6757;52.258;12.840;2023-07-20T11:15:08;1.52;;;1.40;;
7460;SDS011;6757;52.258;12.840;2023-07-20T11:17:35;1.00;;;1.00;;
7460;SDS011;6757;52.258;12.840;2023-07-20T11:20:03;1.40;;;1.30;;
7460;SDS011;6757;52.258;12.840;2023-07-20T11:22:33;1.23;;;1.23;;
7460;SDS011;6757;52.258;12.840;2023-07-20T11:25:00;1.35;;;1.33;;
7460;SDS011;6757;52.258;12.840;2023-07-20T11:27:28;2.55;;;1.60;;
7460;SDS011;6757;52.258;12.840;2023-07-20T11:29:55;1.75;;;1.35;;
7460;SDS011;6757;52.258;12.840;2023-07-20T11:32:22;0.90;;;0.90;;
7460;SDS011;6757;52.258;12.840;2023-07-20T11:34:50;2.13;;;1.45;;
7460;SDS011;6757;52.258;12.840;2023-07-20T11:37:17;0.93;;;0.93;;
7460;SDS011;6757;52.258;12.840;2023-07-20T11:39:45;1.30;;;1.30;;
7460;SDS011;6757;52.258;12.840;2023-07-20T11:42:13;1.90;;;1.27;;
7460;SDS011;6757;52.258;12.840;2023-07-20T11:44:40;0.77;;;0.77;;
7460;SDS011;6757;52.258;12.840;2023-07-20T11:47:08;1.17;;;0.95;;
7460;SDS011;6757;52.258;12.840;2023-07-20T11:49:37;0.80;;;0.80;;
7460;SDS011;6757;52.258;12.840;2023-07-20T11:52:06;1.35;;;0.93;;
7460;SDS011;6757;52.258;12.840;2023-07-20T11:54:34;1.20;;;1.10;;
7460;SDS011;6757;52.258;12.840;2023-07-20T11:57:03;0.75;;;0.75;;
7460;SDS011;6757;52.258;12.840;2023-07-20T11:59:31;1.15;;;1.05;;
7460;SDS011;6757;52.258;12.840;2023-07-20T12:01:58;1.17;;;1.00;;
7460;SDS011;6757;52.258;12.840;2023-07-20T12:04:27;1.35;;;1.25;;
7460;SDS011;6757;52.258;12.840;2023-07-20T12:06:54;1.05;;;1.05;;
7460;SDS011;6757;52.258;12.840;2023-07-20T12:09:21;1.05;;;0.95;;
7460;SDS011;6757;52.258;12.840;2023-07-20T12:11:48;1.25;;;1.08;;
7460;SDS011;6757;52.258;12.840;2023-07-20T12:14:17;1.15;;;1.00;;
7460;SDS011;6757;52.258;12.840;2023-07-20T12:16:44;1.85;;;1.02;;
7460;SDS011;6757;52.258;12.840;2023-07-20T12:19:20;2.97;;;1.40;;
7460;SDS011;6757;52.258;12.840;2023-07-20T12:21:46;1.48;;;1.38;;
7460;SDS011;6757;52.258;12.840;2023-07-20T12:24:13;1.10;;;1.10;;
7460;SDS011;6757;52.258;12.840;2023-07-20T12:26:40;2.03;;;1.45;;
7460;SDS011;6757;52.258;12.840;2023-07-20T12:29:07;1.10;;;1.02;;
7460;SDS011;6757;52.258;12.840;2023-07-20T12:31:36;1.55;;;1.05;;
7460;SDS011;6757;52.258;12.840;2023-07-20T12:34:03;1.10;;;1.00;;
7460;SDS011;6757;52.258;12.840;2023-07-20T12:36:30;1.10;;;1.10;;
7460;SDS011;6757;52.258;12.840;2023-07-20T12:38:57;1.00;;;1.00;;
7460;SDS011;6757;52.258;12.840;2023-07-20T12:41:26;1.98;;;1.30;;
7460;SDS011;6757;52.258;12.840;2023-07-20T12:43:53;0.77;;;0.77;;
7460;SDS011;6757;52.258;12.840;2023-07-20T12:46:23;1.10;;;0.82;;
7460;SDS011;6757;52.258;12.840;2023-07-20T12:48:51;0.88;;;0.88;;
7460;SDS011;6757;52.258;12.840;2023-07-20T12:51:18;0.80;;;0.80;;
7460;SDS011;6757;52.258;12.840;2023-07-20T12:53:45;0.98;;;0.98;;
7460;SDS011;6757;52.258;12.840;2023-07-20T12:56:12;1.42;;;0.95;;
7460;SDS011;6757;52.258;12.840;2023-07-20T12:58:39;0.75;;;0.57;;
7460;SDS011;6757;52.258;12.840;2023-07-20T13:01:06;1.25;;;0.80;;
7460;SDS011;6757;52.258;12.840;2023-07-20T13:03:32;0.43;;;0.43;;
7460;SDS011;6757;52.258;12.840;2023-07-20T13:06:01;0.93;;;0.80;;
7460;SDS011;6757;52.258;12.840;2023-07-20T13:08:28;0.95;;;0.77;;
7460;SDS011;6757;52.258;12.840;2023-07-20T13:10:55;1.08;;;0.57;;
7460;SDS011;6757;52.258;12.840;2023-07-20T13:13:22;0.80;;;0.80;;
7460;SDS011;6757;52.258;12.840;2023-07-20T13:15:49;0.43;;;0.43;;
7460;SDS011;6757;52.258;12.840;2023-07-20T13:18:16;0.60;;;0.60;;
7460;SDS011;6757;52.258;12.840;2023-07-20T13:20:43;1.65;;;0.80;;
7460;SDS011;6757;52.258;12.840;2023-07-20T13:23:12;0.60;;;0.60;;
7460;SDS011;6757;52.258;12.840;2023-07-20T13:25:39;0.88;;;0.80;;
7460;SDS011;6757;52.258;12.840;2023-07-20T13:28:06;0.60;;;0.60;;
7460;SDS011;6757;52.258;12.840;2023-07-20T13:30:33;0.30;;;0.30;;
7460;SDS011;6757;52.258;12.840;2023-07-20T13:33:00;0.70;;;0.70;;
7460;SDS011;6757;52.258;12.840;2023-07-20T13:35:27;0.95;;;0.90;;
7460;SDS011;6757;52.258;12.840;2023-07-20T13:37:54;0.70;;;0.70;;
7460;SDS011;6757;52.258;12.840;2023-07-20T13:40:22;0.75;;;0.75;;
7460;SDS011;6757;52.258;12.840;2023-07-20T13:42:49;0.93;;;0.93;;
7460;SDS011;6757;52.258;12.840;2023-07-20T13:45:16;0.50;;;0.50;;
7460;SDS011;6757;52.258;12.840;2023-07-20T13:47:43;0.90;;;0.90;;
7460;SDS011;6757;52.258;12.840;2023-07-20T13:50:10;0.98;;;0.90;;
7460;SDS011;6757;52.258;12.840;2023-07-20T13:52:37;0.88;;;0.88;;
7460;SDS011;6757;52.258;12.840;2023-07-20T13:55:04;1.13;;;0.60;;
7460;SDS011;6757;52.258;12.840;2023-07-20T13:57:32;0.77;;;0.70;;
7460;SDS011;6757;52.258;12.840;2023-07-20T13:59:59;0.50;;;0.50;;
7460;SDS011;6757;52.258;12.840;2023-07-20T14:02:27;0.88;;;0.88;;
7460;SDS011;6757;52.258;12.840;2023-07-20T14:04:54;0.73;;;0.73;;
7460;SDS011;6757;52.258;12.840;2023-07-20T14:07:21;1.20;;;0.75;;
7460;SDS011;6757;52.258;12.840;2023-07-20T14:09:48;0.50;;;0.50;;
7460;SDS011;6757;52.258;12.840;2023-07-20T14:12:15;1.10;;;1.00;;
7460;SDS011;6757;52.258;12.840;2023-07-20T14:14:43;0.90;;;0.90;;
7460;SDS011;6757;52.258;12.840;2023-07-20T14:17:10;0.75;;;0.75;;
7460;SDS011;6757;52.258;12.840;2023-07-20T14:19:37;1.23;;;0.98;;
7460;SDS011;6757;52.258;12.840;2023-07-20T14:22:05;1.40;;;1.00;;
7460;SDS011;6757;52.258;12.840;2023-07-20T14:24:32;1.02;;;1.00;;
7460;SDS011;6757;52.258;12.840;2023-07-20T14:26:59;2.70;;;1.00;;
7460;SDS011;6757;52.258;12.840;2023-07-20T14:29:26;0.77;;;0.70;;
7460;SDS011;6757;52.258;12.840;2023-07-20T14:31:57;1.63;;;1.20;;
7460;SDS011;6757;52.258;12.840;2023-07-20T14:34:24;1.23;;;1.13;;
7460;SDS011;6757;52.258;12.840;2023-07-20T14:36:51;0.80;;;0.80;;
7460;SDS011;6757;52.258;12.840;2023-07-20T14:39:18;0.75;;;0.75;;
7460;SDS011;6757;52.258;12.840;2023-07-20T14:41:46;1.95;;;1.10;;
7460;SDS011;6757;52.258;12.840;2023-07-20T14:44:13;1.20;;;1.20;;
7460;SDS011;6757;52.258;12.840;2023-07-20T14:46:40;1.48;;;0.90;;
7460;SDS011;6757;52.258;12.840;2023-07-20T14:49:08;1.10;;;1.10;;
7460;SDS011;6757;52.258;12.840;2023-07-20T14:51:35;0.88;;;0.88;;
7460;SDS011;6757;52.258;12.840;2023-07-20T14:54:08;1.92;;;1.15;;
7460;SDS011;6757;52.258;12.840;2023-07-20T14:56:37;1.98;;;1.02;;
7460;SDS011;6757;52.258;12.840;2023-07-20T14:59:05;3.05;;;1.30;;
7460;SDS011;6757;52.258;12.840;2023-07-20T15:01:32;1.35;;;1.00;;
7460;SDS011;6757;52.258;12.840;2023-07-20T15:03:59;0.90;;;0.90;;
7460;SDS011;6757;52.258;12.840;2023-07-20T15:06:28;1.13;;;1.02;;
7460;SDS011;6757;52.258;12.840;2023-07-20T15:08:57;1.13;;;1.02;;
7460;SDS011;6757;52.258;12.840;2023-07-20T15:11:26;0.70;;;0.70;;
7460;SDS011;6757;52.258;12.840;2023-07-20T15:13:52;1.13;;;1.02;;
7460;SDS011;6757;52.258;12.840;2023-07-20T15:16:19;2.05;;;1.05;;